Time;durP1;ratioP1;P1;durP2;ratioP2;P2;SDS_P1;SDS_P2;PMS_P1;PMS_P2;Temp;Humidity;BMP_temperature;BMP_pressure;BME280_temperature;BME280_humidity;BME280_pressure;Samples;Min_cycle;Max_cycle;Signal;HPM_P1;HPM_P2
2023/03/21 00:00:40;;;;;;;37.42;21.38;;;7.50;99.90;;;;;;5051187;28;20116;-76
2023/03/21 00:03:07;;;;;;;37.90;20.63;;;7.60;99.90;;;;;;5041412;28;20055;-78
2023/03/21 00:05:39;;;;;;;36.15;18.33;;;7.60;99.90;;;;;;5054704;28;20123;-76
2023/03/21 00:08:07;;;;;;;43.88;22.13;;;7.60;99.90;;;;;;5057825;28;20076;-78
2023/03/21 00:10:33;;;;;;;41.40;21.58;;;7.60;99.90;;;;;;5061137;28;20610;-78
2023/03/21 00:13:11;;;;;;;34.63;21.27;;;7.60;99.90;;;;;;5059515;28;20052;-76
2023/03/21 00:15:48;;;;;;;34.60;20.95;;;7.60;99.90;;;;;;5044684;28;20036;-76
2023/03/21 00:18:31;;;;;;;40.97;21.13;;;7.60;99.90;;;;;;5049718;28;20051;-75
2023/03/21 00:21:01;;;;;;;32.75;20.95;;;7.70;99.90;;;;;;5041082;28;20519;-78
2023/03/21 00:23:48;;;;;;;40.40;22.35;;;7.70;99.90;;;;;;5037513;28;20036;-78
2023/03/21 00:26:16;;;;;;;41.15;21.88;;;7.70;99.90;;;;;;5063081;28;20033;-75
2023/03/21 00:28:42;;;;;;;42.72;22.30;;;7.60;99.90;;;;;;5049559;28;20067;-76
2023/03/21 00:31:09;;;;;;;37.33;19.73;;;7.60;99.90;;;;;;5061277;28;20050;-76
2023/03/21 00:33:37;;;;;;;35.17;21.38;;;7.60;99.90;;;;;;5057827;28;20048;-75
2023/03/21 00:36:06;;;;;;;38.40;20.52;;;7.60;99.90;;;;;;5057613;28;20127;-77
2023/03/21 00:38:34;;;;;;;36.45;22.27;;;7.60;99.90;;;;;;5055982;28;20378;-76
2023/03/21 00:41:06;;;;;;;38.75;22.48;;;7.60;99.90;;;;;;5040007;28;20123;-78
2023/03/21 00:43:46;;;;;;;49.33;21.50;;;7.60;99.90;;;;;;5059556;28;20451;-76
2023/03/21 00:46:13;;;;;;;52.38;22.65;;;7.50;99.90;;;;;;5061779;28;20074;-75
2023/03/21 00:48:40;;;;;;;38.80;21.80;;;7.50;99.90;;;;;;5046192;28;20114;-79
2023/03/21 00:51:14;;;;;;;39.97;20.75;;;7.50;99.90;;;;;;5056983;28;20053;-77
2023/03/21 00:53:41;;;;;;;37.72;21.25;;;7.50;99.90;;;;;;5057585;28;20056;-83
2023/03/21 00:56:09;;;;;;;39.97;21.33;;;7.50;99.90;;;;;;5045393;28;20559;-79
2023/03/21 00:58:35;;;;;;;42.05;23.42;;;7.50;99.90;;;;;;5058594;28;20043;-76
2023/03/21 01:01:03;;;;;;;46.25;22.65;;;7.50;99.90;;;;;;5040391;28;20041;-77
2023/03/21 01:03:29;;;;;;;45.17;23.10;;;7.50;99.90;;;;;;5061650;28;20040;-75
2023/03/21 01:06:05;;;;;;;53.80;25.73;;;7.40;99.90;;;;;;5044066;28;20494;-78
2023/03/21 01:08:42;;;;;;;44.50;25.00;;;7.50;99.90;;;;;;5057689;28;20071;-80
2023/03/21 01:11:27;;;;;;;48.13;22.70;;;7.50;99.90;;;;;;5055536;28;20562;-76
2023/03/21 01:13:54;;;;;;;52.17;23.45;;;7.50;99.90;;;;;;5061464;28;20114;-78
2023/03/21 01:16:41;;;;;;;51.85;25.75;;;7.40;99.90;;;;;;5044592;28;20059;-81
2023/03/21 01:19:11;;;;;;;48.65;24.75;;;7.50;99.90;;;;;;5044612;28;20037;-79
2023/03/21 01:21:50;;;;;;;58.42;26.70;;;7.50;99.90;;;;;;5047631;28;20064;-78
2023/03/21 01:24:16;;;;;;;54.63;26.63;;;7.50;99.90;;;;;;5046665;28;20042;-78
2023/03/21 01:26:44;;;;;;;58.10;26.15;;;7.40;99.90;;;;;;5046694;28;20041;-77
2023/03/21 01:29:10;;;;;;;55.72;26.55;;;7.40;99.90;;;;;;5053902;28;20068;-75
2023/03/21 01:31:37;;;;;;;66.72;29.73;;;7.40;99.90;;;;;;5063994;28;20055;-79
2023/03/21 01:34:05;;;;;;;66.25;29.08;;;7.40;99.90;;;;;;5040566;28;20037;-74
2023/03/21 01:36:32;;;;;;;67.75;30.58;;;7.40;99.90;;;;;;5058116;28;20040;-76
2023/03/21 01:39:05;;;;;;;67.25;31.58;;;7.40;99.90;;;;;;5040524;28;20142;-74
2023/03/21 01:41:42;;;;;;;64.57;30.83;;;7.40;99.90;;;;;;5060619;28;20115;-76
2023/03/21 01:44:28;;;;;;;63.45;31.75;;;7.40;99.90;;;;;;5049352;28;20120;-80
2023/03/21 01:46:55;;;;;;;78.88;32.78;;;7.30;99.90;;;;;;5041671;28;20045;-75
2023/03/21 01:49:53;;;;;;;74.53;32.70;;;7.30;99.90;;;;;;5059485;28;20102;-77
2023/03/21 01:52:36;;;;;;;79.88;33.03;;;7.30;99.90;;;;;;5059350;28;20048;-78
2023/03/21 01:55:11;;;;;;;72.97;32.10;;;7.30;99.90;;;;;;5046851;28;20044;-77
2023/03/21 01:57:55;;;;;;;67.57;30.85;;;7.30;99.90;;;;;;5047906;28;20044;-75
2023/03/21 02:00:55;;;;;;;68.97;29.55;;;7.30;99.90;;;;;;5048528;28;20051;-77
2023/03/21 02:03:49;;;;;;;67.90;32.47;;;7.30;99.90;;;;;;5057594;28;20589;-78
2023/03/21 02:06:51;;;;;;;71.65;31.55;;;7.30;99.90;;;;;;5059798;28;20497;-78
2023/03/21 02:09:35;;;;;;;66.72;31.73;;;7.40;99.90;;;;;;5049544;28;20547;-79
2023/03/21 02:12:07;;;;;;;68.85;29.40;;;7.40;99.90;;;;;;5061911;28;20045;-77
2023/03/21 02:14:36;;;;;;;58.05;28.85;;;7.40;99.90;;;;;;5061968;28;20117;-76
2023/03/21 02:17:27;;;;;;;65.32;29.45;;;7.40;99.90;;;;;;5061695;28;20400;-76
2023/03/21 02:20:05;;;;;;;57.55;28.65;;;7.50;99.90;;;;;;5047835;28;20121;-76
2023/03/21 02:23:10;;;;;;;59.72;28.58;;;7.50;99.90;;;;;;5066460;28;20043;-77
2023/03/21 02:25:55;;;;;;;59.78;28.75;;;7.50;99.90;;;;;;5055424;28;20053;-81
2023/03/21 02:28:30;;;;;;;60.60;28.17;;;7.60;99.90;;;;;;5065069;28;20152;-76
2023/03/21 02:31:00;;;;;;;63.95;29.58;;;7.60;99.90;;;;;;5052975;28;21142;-75
2023/03/21 02:33:46;;;;;;;50.05;26.20;;;7.60;99.90;;;;;;5066556;28;20061;-77
2023/03/21 02:36:25;;;;;;;51.70;26.83;;;7.60;99.90;;;;;;5064103;28;20064;-77
2023/03/21 02:38:59;;;;;;;46.40;25.40;;;7.70;99.90;;;;;;5060431;28;20045;-77
2023/03/21 02:41:57;;;;;;;49.97;24.77;;;7.70;99.90;;;;;;5049908;28;20040;-77
2023/03/21 02:44:40;;;;;;;50.03;25.67;;;7.70;99.90;;;;;;5069774;28;20160;-74
2023/03/21 02:47:13;;;;;;;50.30;25.98;;;7.70;99.90;;;;;;5050421;28;20062;-78
2023/03/21 02:50:05;;;;;;;45.20;23.63;;;7.70;99.90;;;;;;5065702;28;20212;-81
2023/03/21 02:52:35;;;;;;;43.90;26.02;;;7.70;99.90;;;;;;5060948;28;20465;-78
2023/03/21 02:55:12;;;;;;;;;;;7.80;99.90;;;;;;5048662;28;20127;-76
2023/03/21 02:57:47;;;;;;;42.70;23.92;;;7.70;99.90;;;;;;5042625;28;20031;-77
2023/03/21 03:00:21;;;;;;;38.58;24.05;;;7.80;99.90;;;;;;5063499;28;20060;-80
2023/03/21 03:02:49;;;;;;;45.80;25.13;;;7.80;99.90;;;;;;5065245;28;20069;-77
2023/03/21 03:05:30;;;;;;;47.50;23.75;;;7.80;99.90;;;;;;5061930;28;20486;-78
2023/03/21 03:08:06;;;;;;;47.65;25.10;;;7.90;99.90;;;;;;5065497;28;20193;-78
2023/03/21 03:11:16;;;;;;;41.65;24.63;;;7.90;99.90;;;;;;5064723;28;20251;-78
2023/03/21 03:13:52;;;;;;;41.90;25.25;;;8.00;99.90;;;;;;5060397;28;20277;-76
2023/03/21 03:16:31;;;;;;;40.88;25.23;;;8.00;99.90;;;;;;5056077;28;20056;-78
2023/03/21 03:19:00;;;;;;;40.85;24.80;;;8.00;99.90;;;;;;5042126;28;20516;-75
2023/03/21 03:21:44;;;;;;;37.80;25.90;;;8.00;99.90;;;;;;5047418;28;20033;-76
2023/03/21 03:24:19;;;;;;;40.17;24.65;;;8.00;99.90;;;;;;5051835;28;20042;-78
2023/03/21 03:27:01;;;;;;;39.75;24.75;;;8.10;99.90;;;;;;5040177;28;20148;-74
2023/03/21 03:29:31;;;;;;;42.88;24.33;;;8.10;99.90;;;;;;5062458;28;20230;-74
2023/03/21 03:32:11;;;;;;;42.47;25.08;;;8.00;99.90;;;;;;5058765;28;20770;-73
2023/03/21 03:34:48;;;;;;;52.13;25.83;;;8.10;99.90;;;;;;5060880;28;20046;-78
2023/03/21 03:37:25;;;;;;;40.13;26.35;;;8.10;99.90;;;;;;5034370;28;20095;-76
2023/03/21 03:40:04;;;;;;;;;;;8.10;99.90;;;;;;5042741;28;20274;-75
2023/03/21 03:42:42;;;;;;;36.88;24.00;;;8.10;99.90;;;;;;5059707;28;20372;-78
2023/03/21 03:45:22;;;;;;;42.30;25.42;;;8.10;99.90;;;;;;5062338;28;20044;-77
2023/03/21 03:47:58;;;;;;;43.60;26.15;;;8.10;99.90;;;;;;5059753;28;20079;-77
2023/03/21 03:50:42;;;;;;;40.25;26.05;;;8.20;99.90;;;;;;5062356;28;20540;-75
2023/03/21 03:53:24;;;;;;;37.92;24.58;;;8.20;99.90;;;;;;5043648;28;20040;-78
2023/03/21 03:55:54;;;;;;;39.80;26.13;;;8.30;99.90;;;;;;5040396;28;20060;-76
2023/03/21 03:58:23;;;;;;;47.42;26.77;;;8.30;99.90;;;;;;5063960;22;20052;-70
2023/03/21 04:01:06;;;;;;;42.00;25.83;;;8.40;99.90;;;;;;5030163;28;20450;-71
2023/03/21 04:03:36;;;;;;;40.78;27.08;;;8.40;99.90;;;;;;5028078;28;20308;-70
2023/03/21 04:06:16;;;;;;;44.00;26.15;;;8.40;99.90;;;;;;5031640;28;20087;-69
2023/03/21 04:08:43;;;;;;;36.33;25.42;;;8.30;99.90;;;;;;5028740;28;20048;-70
2023/03/21 04:11:13;;;;;;;43.83;26.80;;;8.30;99.90;;;;;;5009302;28;20042;-70
2023/03/21 04:13:44;;;;;;;41.75;25.48;;;8.40;99.90;;;;;;5028312;28;20049;-71
2023/03/21 04:16:18;;;;;;;38.22;25.90;;;8.30;99.90;;;;;;5030446;28;20048;-70
2023/03/21 04:18:46;;;;;;;37.78;26.45;;;8.40;99.90;;;;;;5010373;28;20487;-69
2023/03/21 04:21:17;;;;;;;43.75;26.30;;;8.40;99.90;;;;;;5017685;28;20044;-71
2023/03/21 04:23:44;;;;;;;36.75;25.75;;;8.40;99.90;;;;;;5030764;28;20089;-69
2023/03/21 04:26:11;;;;;;;43.58;25.85;;;8.40;99.90;;;;;;5015871;28;20513;-71
2023/03/21 04:28:43;;;;;;;37.45;27.10;;;8.40;99.90;;;;;;5024518;28;20055;-70
2023/03/21 04:31:29;;;;;;;38.25;27.13;;;8.30;99.90;;;;;;5037823;28;20040;-71
2023/03/21 04:34:11;;;;;;;37.28;26.60;;;8.40;99.90;;;;;;5016828;28;20411;-71
2023/03/21 04:36:43;;;;;;;38.80;25.65;;;8.50;99.90;;;;;;5028779;28;20277;-70
2023/03/21 04:39:11;;;;;;;42.25;28.48;;;8.50;99.90;;;;;;5019847;28;20041;-70
2023/03/21 04:41:41;;;;;;;38.70;28.75;;;8.50;99.90;;;;;;5027862;28;20565;-70
2023/03/21 04:44:09;;;;;;;41.03;26.83;;;8.50;99.90;;;;;;5013947;28;20041;-71
2023/03/21 04:46:37;;;;;;;42.17;27.33;;;8.50;99.90;;;;;;5013156;28;20093;-70
2023/03/21 04:49:05;;;;;;;42.63;28.65;;;8.50;99.90;;;;;;5014424;28;20056;-71
2023/03/21 04:51:33;;;;;;;37.13;27.30;;;8.50;99.90;;;;;;5025511;28;20675;-70
2023/03/21 04:53:59;;;;;;;41.88;30.02;;;8.50;99.90;;;;;;5024836;28;20111;-71
2023/03/21 04:56:31;;;;;;;46.40;26.92;;;8.60;99.90;;;;;;5031376;28;20061;-70
2023/03/21 04:59:01;;;;;;;44.10;28.38;;;8.50;99.90;;;;;;5010115;28;20136;-70
2023/03/21 05:01:30;;;;;;;45.53;28.67;;;8.50;99.90;;;;;;5024496;28;20552;-70
2023/03/21 05:03:59;;;;;;;43.30;28.00;;;8.50;99.90;;;;;;5028569;28;20674;-71
2023/03/21 05:06:26;;;;;;;42.50;28.10;;;8.50;99.90;;;;;;5029721;28;20037;-71
2023/03/21 05:08:55;;;;;;;41.58;27.23;;;8.30;99.90;;;;;;5028552;28;20204;-71
2023/03/21 05:11:22;;;;;;;44.58;27.10;;;8.30;99.90;;;;;;5031680;28;20091;-71
2023/03/21 05:13:49;;;;;;;48.00;27.40;;;8.20;99.90;;;;;;5027993;28;20111;-69
2023/03/21 05:16:15;;;;;;;58.53;29.33;;;8.10;99.90;;;;;;5029543;28;20398;-70
2023/03/21 05:18:43;;;;;;;46.33;26.77;;;8.10;99.90;;;;;;5035638;28;20087;-71
2023/03/21 05:21:17;;;;;;;51.50;27.45;;;8.10;99.90;;;;;;5038971;22;20366;-73
2023/03/21 05:23:53;;;;;;;49.65;27.23;;;8.10;99.90;;;;;;5023453;28;20128;-73
2023/03/21 05:26:24;;;;;;;55.05;27.63;;;8.10;99.90;;;;;;5034298;28;20048;-72
2023/03/21 05:28:57;;;;;;;55.08;28.73;;;8.10;99.90;;;;;;5035653;28;20433;-72
2023/03/21 05:31:24;;;;;;;61.97;28.90;;;8.10;99.90;;;;;;5028070;28;20426;-72
2023/03/21 05:34:02;;;;;;;57.45;28.15;;;8.00;99.90;;;;;;5042112;28;20048;-72
2023/03/21 05:36:32;;;;;;;58.85;28.35;;;8.00;99.90;;;;;;5043059;28;20048;-72
2023/03/21 05:39:01;;;;;;;54.15;28.58;;;8.00;99.90;;;;;;5038093;28;20036;-75
2023/03/21 05:41:31;;;;;;;59.15;29.10;;;8.10;99.90;;;;;;5047439;28;20589;-72
2023/03/21 05:44:02;;;;;;;58.60;30.45;;;8.10;99.90;;;;;;5037135;28;20075;-72
2023/03/21 05:46:29;;;;;;;56.65;30.35;;;8.20;99.90;;;;;;5039271;28;20557;-73
2023/03/21 05:48:56;;;;;;;59.38;29.98;;;8.20;99.90;;;;;;5029005;28;20048;-72
2023/03/21 05:51:24;;;;;;;71.05;33.50;;;8.20;99.90;;;;;;5033796;28;20243;-72
2023/03/21 05:53:51;;;;;;;64.22;32.72;;;8.20;99.90;;;;;;5038642;28;20056;-73
2023/03/21 05:56:18;;;;;;;64.63;30.95;;;8.20;99.90;;;;;;5041849;28;20348;-73
2023/03/21 05:58:49;;;;;;;58.25;31.02;;;8.20;99.90;;;;;;5041695;28;20310;-73
2023/03/21 06:01:17;;;;;;;61.28;31.95;;;8.30;99.90;;;;;;5044477;28;20219;-73
2023/03/21 06:03:52;;;;;;;67.43;30.63;;;8.30;99.90;;;;;;5032152;28;20121;-73
2023/03/21 06:06:23;;;;;;;61.90;31.90;;;8.40;99.90;;;;;;5015951;28;20052;-73
2023/03/21 06:08:53;;;;;;;54.92;31.13;;;8.50;99.90;;;;;;5015118;28;20201;-73
2023/03/21 06:11:32;;;;;;;65.40;32.28;;;8.50;99.90;;;;;;5028184;28;20191;-74
2023/03/21 06:14:19;;;;;;;58.78;30.30;;;8.50;99.90;;;;;;5040272;28;20619;-73
2023/03/21 06:16:59;;;;;;;60.97;31.45;;;8.50;99.90;;;;;;5036254;28;20166;-74
2023/03/21 06:19:26;;;;;;;56.40;29.73;;;8.50;99.90;;;;;;5041067;28;20090;-74
2023/03/21 06:22:02;;;;;;;56.47;32.45;;;8.60;99.90;;;;;;5008948;28;20041;-73
2023/03/21 06:24:31;;;;;;;60.38;30.20;;;8.50;99.90;;;;;;5024524;28;20246;-73
2023/03/21 06:26:59;;;;;;;55.10;29.85;;;8.50;99.90;;;;;;5030713;28;20044;-73
2023/03/21 06:29:34;;;;;;;53.30;31.48;;;8.60;99.90;;;;;;5018617;28;20217;-73
2023/03/21 06:32:01;;;;;;;56.97;29.90;;;8.60;99.90;;;;;;5034877;28;20433;-73
2023/03/21 06:34:28;;;;;;;54.25;31.60;;;8.70;99.90;;;;;;5018327;28;20064;-72
2023/03/21 06:36:55;;;;;;;49.03;29.85;;;8.70;99.90;;;;;;5014855;28;20522;-72
2023/03/21 06:39:27;;;;;;;63.70;30.27;;;8.70;99.90;;;;;;5017063;28;20127;-73
2023/03/21 06:41:54;;;;;;;49.92;30.52;;;8.70;99.90;;;;;;5030542;28;20527;-74
2023/03/21 06:44:21;;;;;;;54.95;30.92;;;8.70;99.90;;;;;;5044540;28;20048;-72
2023/03/21 06:46:55;;;;;;;;;;;8.70;99.90;;;;;;5035910;28;20163;-72
2023/03/21 06:49:22;;;;;;;52.55;30.70;;;8.70;99.90;;;;;;5035778;28;19920;-72
2023/03/21 06:51:49;;;;;;;57.42;29.48;;;8.70;99.90;;;;;;5008126;28;20043;-73
2023/03/21 06:54:18;;;;;;;54.75;30.95;;;8.80;99.90;;;;;;5035855;28;20041;-73
2023/03/21 06:56:56;;;;;;;52.22;29.67;;;8.80;99.90;;;;;;5032299;28;20132;-73
2023/03/21 06:59:27;;;;;;;49.95;30.48;;;8.80;99.90;;;;;;5039942;28;20041;-72
2023/03/21 07:02:00;;;;;;;49.83;32.80;;;8.90;99.90;;;;;;5015727;28;20129;-73
2023/03/21 07:04:28;;;;;;;47.00;31.02;;;8.90;99.90;;;;;;5035589;28;20044;-72
2023/03/21 07:06:56;;;;;;;50.60;31.75;;;9.00;99.90;;;;;;5029248;28;20128;-75
2023/03/21 07:09:26;;;;;;;56.47;32.88;;;9.00;99.90;;;;;;5033782;28;20055;-72
2023/03/21 07:11:56;;;;;;;47.08;32.90;;;9.10;99.90;;;;;;5026802;28;20044;-73
2023/03/21 07:14:30;;;;;;;51.45;33.13;;;9.10;99.90;;;;;;5042972;28;20044;-72
2023/03/21 07:16:57;;;;;;;53.60;33.80;;;9.20;99.90;;;;;;5013602;28;20330;-73
2023/03/21 07:19:25;;;;;;;49.25;34.55;;;9.20;99.90;;;;;;5048236;28;20028;-72
2023/03/21 07:21:52;;;;;;;60.30;36.58;;;9.30;99.90;;;;;;5038995;28;20332;-73
2023/03/21 07:24:19;;;;;;;53.55;35.70;;;9.40;99.90;;;;;;5035865;28;20036;-73
2023/03/21 07:26:45;;;;;;;48.33;34.92;;;9.50;99.90;;;;;;5033399;28;20301;-72
2023/03/21 07:29:12;;;;;;;42.53;34.03;;;9.50;99.90;;;;;;5044937;28;20087;-73
2023/03/21 07:31:39;;;;;;;55.22;37.28;;;9.60;99.90;;;;;;5049336;28;20048;-73
2023/03/21 07:34:06;;;;;;;52.30;37.03;;;9.70;99.90;;;;;;5032760;28;20055;-73
2023/03/21 07:36:33;;;;;;;41.97;33.78;;;9.80;99.90;;;;;;5031701;28;20041;-73
2023/03/21 07:38:59;;;;;;;41.08;34.15;;;9.90;99.90;;;;;;5028034;28;20532;-73
2023/03/21 07:41:26;;;;;;;47.97;34.35;;;9.80;99.90;;;;;;5019905;28;20043;-73
2023/03/21 07:44:02;;;;;;;48.33;34.20;;;9.90;99.90;;;;;;5031571;28;20040;-73
2023/03/21 07:46:32;;;;;;;38.83;34.72;;;9.90;99.90;;;;;;5024254;28;20036;-74
2023/03/21 07:48:58;;;;;;;43.88;36.17;;;10.00;99.90;;;;;;5037225;28;20109;-73
2023/03/21 07:51:27;;;;;;;48.10;35.05;;;10.10;99.90;;;;;;5036509;28;20047;-74
2023/03/21 07:53:55;;;;;;;49.90;35.95;;;10.20;99.90;;;;;;5032330;28;20054;-76
2023/03/21 07:56:21;;;;;;;45.28;35.53;;;10.30;99.90;;;;;;5037072;28;20048;-73
2023/03/21 07:58:48;;;;;;;42.35;37.88;;;10.40;99.90;;;;;;5028149;28;20062;-74
2023/03/21 08:01:15;;;;;;;42.55;37.95;;;10.30;99.90;;;;;;5032863;28;20167;-73
2023/03/21 08:03:42;;;;;;;42.25;36.58;;;10.40;99.90;;;;;;5036433;28;20061;-73
2023/03/21 08:06:09;;;;;;;41.83;34.50;;;10.60;99.90;;;;;;5041771;28;20490;-74
2023/03/21 08:08:36;;;;;;;39.75;35.50;;;10.60;99.90;;;;;;5046961;28;20060;-74
2023/03/21 08:11:04;;;;;;;38.83;34.97;;;10.60;99.90;;;;;;5016287;28;20693;-74
2023/03/21 08:13:32;;;;;;;41.15;36.90;;;10.60;99.90;;;;;;5034754;28;20616;-73
2023/03/21 08:15:58;;;;;;;47.30;38.53;;;10.70;99.90;;;;;;5022269;28;21482;-75
2023/03/21 08:18:25;;;;;;;46.03;40.88;;;10.70;99.90;;;;;;5039842;28;20045;-74
2023/03/21 08:20:53;;;;;;;42.03;37.42;;;10.90;99.90;;;;;;5023944;28;20052;-74
2023/03/21 08:23:20;;;;;;;47.47;41.65;;;10.90;99.90;;;;;;5024987;28;20161;-74
2023/03/21 08:25:51;;;;;;;41.13;36.55;;;11.00;99.90;;;;;;5008172;28;20515;-74
2023/03/21 08:28:19;;;;;;;40.90;36.90;;;11.00;99.90;;;;;;5006009;28;20768;-74
2023/03/21 08:30:46;;;;;;;44.60;39.97;;;11.00;99.90;;;;;;5018816;28;20812;-74
2023/03/21 08:33:14;;;;;;;42.03;38.35;;;11.00;99.90;;;;;;5023236;28;20105;-74
2023/03/21 08:35:40;;;;;;;47.53;43.08;;;10.90;99.90;;;;;;5021267;28;20111;-75
2023/03/21 08:38:08;;;;;;;41.95;37.65;;;10.80;99.90;;;;;;5021509;28;20751;-74
2023/03/21 08:40:35;;;;;;;42.35;38.47;;;10.80;99.90;;;;;;5025595;28;20047;-74
2023/03/21 08:43:02;;;;;;;40.80;37.25;;;10.80;99.90;;;;;;5002242;28;20028;-75
2023/03/21 08:45:29;;;;;;;41.60;37.75;;;10.70;99.90;;;;;;5024335;28;20441;-74
2023/03/21 08:47:57;;;;;;;41.25;37.10;;;10.80;99.90;;;;;;5000372;28;20063;-74
2023/03/21 08:50:26;;;;;;;41.80;37.97;;;10.80;99.90;;;;;;5012077;28;20493;-75
2023/03/21 08:52:54;;;;;;;42.63;38.75;;;10.70;99.90;;;;;;5020433;28;20048;-74
2023/03/21 08:55:20;;;;;;;43.22;39.25;;;10.60;99.90;;;;;;5030121;28;20746;-73
2023/03/21 08:57:48;;;;;;;42.47;38.72;;;10.50;99.90;;;;;;5024394;28;20040;-74
2023/03/21 09:00:19;;;;;;;41.17;37.17;;;10.60;99.90;;;;;;5032962;28;22228;-74
2023/03/21 09:02:48;;;;;;;41.55;37.15;;;10.70;99.90;;;;;;5028038;28;20064;-74
2023/03/21 09:05:15;;;;;;;42.95;38.22;;;10.70;99.90;;;;;;5040544;28;20072;-74
2023/03/21 09:07:43;;;;;;;41.35;37.25;;;10.70;99.90;;;;;;5048158;28;20077;-74
2023/03/21 09:10:13;;;;;;;41.97;37.67;;;10.80;99.90;;;;;;5036018;28;20052;-76
2023/03/21 09:12:49;;;;;;;36.67;32.53;;;10.80;99.90;;;;;;5019907;28;20203;-74
2023/03/21 09:15:19;;;;;;;49.78;36.75;;;10.80;99.90;;;;;;5048326;28;20062;-74
2023/03/21 09:17:48;;;;;;;41.65;35.80;;;10.70;99.90;;;;;;5030343;28;20080;-74
2023/03/21 09:20:19;;;;;;;52.03;37.33;;;10.70;99.90;;;;;;5029539;28;20123;-75
2023/03/21 09:22:53;;;;;;;43.95;37.78;;;10.70;99.90;;;;;;5048579;28;20214;-73
2023/03/21 09:25:20;;;;;;;41.30;36.90;;;10.60;99.90;;;;;;5041429;28;20047;-74
2023/03/21 09:27:47;;;;;;;52.28;42.55;;;10.50;99.90;;;;;;5032722;28;20040;-74
2023/03/21 09:30:20;;;;;;;48.85;40.97;;;10.50;99.90;;;;;;5051947;28;20043;-73
2023/03/21 09:32:47;;;;;;;52.53;35.08;;;10.40;99.90;;;;;;5042352;28;20110;-74
2023/03/21 09:35:17;;;;;;;48.72;35.58;;;10.40;99.90;;;;;;5038672;28;20137;-75
2023/03/21 09:37:47;;;;;;;43.33;33.63;;;10.40;99.90;;;;;;5045137;28;20058;-73
2023/03/21 09:40:33;;;;;;;39.20;32.70;;;10.50;99.90;;;;;;5045721;28;20044;-74
2023/03/21 09:43:49;;;;;;;44.25;33.67;;;10.40;99.90;;;;;;5046881;28;20063;-75
2023/03/21 09:46:30;;;;;;;46.58;33.75;;;10.30;99.90;;;;;;5052628;28;20468;-75
2023/03/21 09:49:01;;;;;;;43.28;30.45;;;10.30;99.90;;;;;;5038686;28;20052;-74
2023/03/21 09:51:34;;;;;;;47.38;32.85;;;10.30;99.90;;;;;;5052682;28;20094;-74
2023/03/21 09:54:12;;;;;;;42.70;30.02;;;10.20;99.90;;;;;;5050624;28;20058;-73
2023/03/21 09:56:41;;;;;;;47.47;28.70;;;10.20;99.90;;;;;;5049254;28;20047;-78
2023/03/21 09:59:20;;;;;;;41.35;28.00;;;10.10;99.90;;;;;;5045909;28;20143;-74
2023/03/21 10:01:48;;;;;;;43.80;28.90;;;10.10;99.90;;;;;;5017680;28;20076;-73
2023/03/21 10:04:17;;;;;;;48.78;30.08;;;10.10;99.90;;;;;;5043912;28;20480;-74
2023/03/21 10:06:49;;;;;;;43.30;27.38;;;10.10;99.90;;;;;;5039427;28;20044;-74
2023/03/21 10:09:23;;;;;;;47.00;28.80;;;10.10;99.90;;;;;;5034860;28;20053;-74
2023/03/21 10:12:07;;;;;;;37.78;26.45;;;10.20;99.90;;;;;;5047356;28;20044;-74
2023/03/21 10:14:41;;;;;;;39.83;27.05;;;10.20;99.90;;;;;;5045550;28;20067;-74
2023/03/21 10:17:21;;;;;;;39.05;28.15;;;10.10;99.90;;;;;;5036617;28;20053;-75
2023/03/21 10:20:25;;;;;;;34.47;26.75;;;10.20;99.90;;;;;;5035465;28;20610;-75
2023/03/21 10:22:56;;;;;;;35.08;25.70;;;10.30;99.90;;;;;;5029344;28;20794;-75
2023/03/21 10:25:36;;;;;;;36.17;23.90;;;10.20;99.90;;;;;;5045559;28;20540;-74
2023/03/21 10:28:05;;;;;;;28.63;23.38;;;10.20;99.90;;;;;;5040923;28;20044;-75
2023/03/21 10:30:35;;;;;;;32.55;24.17;;;10.20;99.90;;;;;;5045607;28;20606;-74
2023/03/21 10:33:08;;;;;;;33.67;22.95;;;10.20;99.90;;;;;;5037104;28;20596;-75
2023/03/21 10:35:38;;;;;;;33.00;23.08;;;10.30;99.90;;;;;;5041452;28;20045;-75
2023/03/21 10:38:10;;;;;;;30.58;25.45;;;10.20;99.90;;;;;;5043837;28;20055;-75
2023/03/21 10:40:36;;;;;;;33.00;23.85;;;10.10;99.90;;;;;;5051994;28;20442;-74
2023/03/21 10:43:28;;;;;;;29.67;22.85;;;10.20;99.90;;;;;;5037494;28;20394;-75
2023/03/21 10:45:56;;;;;;;29.33;23.63;;;10.30;99.90;;;;;;5037380;28;20072;-74
2023/03/21 10:48:24;;;;;;;33.85;24.33;;;10.20;99.90;;;;;;5043446;28;20046;-75
2023/03/21 10:50:53;;;;;;;32.30;25.17;;;10.20;99.90;;;;;;5038924;28;20109;-75
2023/03/21 10:53:31;;;;;;;30.40;22.85;;;10.20;99.90;;;;;;5049753;28;20047;-76
2023/03/21 10:56:05;;;;;;;30.17;22.80;;;10.20;99.90;;;;;;5035989;28;20219;-74
2023/03/21 10:58:38;;;;;;;37.35;25.08;;;10.20;99.90;;;;;;5056994;28;20136;-76
2023/03/21 11:01:08;;;;;;;32.90;23.42;;;10.20;99.90;;;;;;5038336;28;20044;-74
2023/03/21 11:03:42;;;;;;;27.83;21.35;;;10.10;99.90;;;;;;5051362;28;20048;-76
2023/03/21 11:06:21;;;;;;;29.40;20.73;;;10.10;99.90;;;;;;5044914;28;20133;-75
2023/03/21 11:08:52;;;;;;;29.55;20.23;;;10.10;99.90;;;;;;5036258;28;20134;-74
2023/03/21 11:11:36;;;;;;;33.20;20.05;;;10.10;99.90;;;;;;5033005;28;20057;-75
2023/03/21 11:14:06;;;;;;;33.08;23.10;;;10.10;99.90;;;;;;5043023;28;20068;-76
2023/03/21 11:16:36;;;;;;;26.80;18.90;;;10.10;99.90;;;;;;5023182;28;20144;-77
2023/03/21 11:19:14;;;;;;;39.45;23.45;;;10.10;99.90;;;;;;5040341;28;20101;-76
2023/03/21 11:21:43;;;;;;;59.65;40.20;;;10.10;99.90;;;;;;5032396;22;20152;-73
2023/03/21 11:24:16;;;;;;;30.73;20.52;;;10.10;99.90;;;;;;5023950;28;20052;-73
2023/03/21 11:26:46;;;;;;;26.65;17.08;;;10.10;99.90;;;;;;5024374;28;20419;-73
2023/03/21 11:29:22;;;;;;;28.52;16.42;;;10.10;99.90;;;;;;5028696;28;20268;-73
2023/03/21 11:31:49;;;;;;;27.80;18.17;;;10.00;99.90;;;;;;5017684;28;20054;-72
2023/03/21 11:34:33;;;;;;;24.67;17.42;;;10.00;99.90;;;;;;5011438;28;20045;-72
2023/03/21 11:37:02;;;;;;;27.50;16.50;;;10.00;99.90;;;;;;5018859;28;20247;-73
2023/03/21 11:39:36;;;;;;;24.67;17.23;;;10.10;99.90;;;;;;5022380;28;20039;-73
2023/03/21 11:42:03;;;;;;;30.25;16.75;;;10.10;99.90;;;;;;5015074;28;20076;-73
2023/03/21 11:44:34;;;;;;;26.73;16.63;;;10.10;99.90;;;;;;5026690;28;20558;-73
2023/03/21 11:47:01;;;;;;;27.33;18.98;;;10.10;99.90;;;;;;5021114;28;20580;-73
2023/03/21 11:49:27;;;;;;;27.65;18.08;;;10.10;99.90;;;;;;5020519;28;20581;-73
2023/03/21 11:52:34;;;;;;;35.00;18.73;;;10.10;99.90;;;;;;5015702;28;20404;-73
2023/03/21 11:55:21;;;;;;;24.33;15.05;;;10.20;99.90;;;;;;4994986;28;20061;-73
2023/03/21 11:58:14;;;;;;;21.73;15.60;;;10.20;99.90;;;;;;5019621;28;20041;-74
2023/03/21 12:00:53;;;;;;;25.30;16.30;;;10.10;99.90;;;;;;5024003;28;20044;-73
2023/03/21 12:03:41;;;;;;;35.83;20.45;;;10.10;99.90;;;;;;5005608;28;20052;-73
2023/03/21 12:06:44;;;;;;;24.58;15.13;;;10.00;99.90;;;;;;4998081;28;20232;-73
2023/03/21 12:09:26;;;;;;;21.65;14.60;;;10.00;99.90;;;;;;5019465;28;20052;-73
2023/03/21 12:12:13;;;;;;;19.73;16.67;;;10.10;99.90;;;;;;5020043;28;20149;-73
2023/03/21 12:15:02;;;;;;;16.83;15.00;;;10.00;99.90;;;;;;5021506;28;20151;-73
2023/03/21 12:17:42;;;;;;;22.23;14.70;;;10.10;99.90;;;;;;5023048;28;20137;-73
2023/03/21 12:20:19;;;;;;;16.88;13.93;;;10.00;99.90;;;;;;5010207;28;21050;-73
2023/03/21 12:22:49;;;;;;;18.40;13.70;;;10.00;99.90;;;;;;5004977;28;20091;-73
2023/03/21 12:25:19;;;;;;;33.38;19.20;;;10.00;99.90;;;;;;5024394;28;20301;-73
2023/03/21 12:28:03;;;;;;;25.10;14.55;;;10.00;99.90;;;;;;5021819;28;20136;-73
2023/03/21 12:30:36;;;;;;;;;;;10.10;99.90;;;;;;5025451;28;20049;-73
2023/03/21 12:33:30;;;;;;;18.58;12.57;;;10.10;99.90;;;;;;5020099;28;19921;-74
2023/03/21 12:36:13;;;;;;;22.88;12.75;;;10.00;99.90;;;;;;5025271;28;20045;-73
2023/03/21 12:38:47;;;;;;;18.65;11.90;;;9.90;99.90;;;;;;5023787;28;20502;-73
2023/03/21 12:41:22;;;;;;;19.85;12.77;;;9.80;99.90;;;;;;5019176;28;20497;-73
2023/03/21 12:44:01;;;;;;;18.15;12.57;;;9.80;99.90;;;;;;5010563;28;20053;-73
2023/03/21 12:46:47;;;;;;;17.45;12.63;;;9.80;99.90;;;;;;5023856;28;20037;-73
2023/03/21 12:49:44;;;;;;;21.00;13.10;;;9.80;99.90;;;;;;5017698;28;20068;-73
2023/03/21 12:52:20;;;;;;;19.25;11.10;;;9.90;99.90;;;;;;5020170;28;21095;-73
2023/03/21 12:55:15;;;;;;;20.70;12.77;;;9.80;99.90;;;;;;5018396;28;20408;-73
2023/03/21 12:57:51;;;;;;;20.70;12.00;;;9.80;99.90;;;;;;5025291;28;20065;-74
2023/03/21 13:00:36;;;;;;;22.30;14.02;;;9.80;99.90;;;;;;5019341;28;20382;-74
2023/03/21 13:03:09;;;;;;;27.33;14.88;;;9.90;99.90;;;;;;5021616;28;20055;-74
2023/03/21 13:05:50;;;;;;;32.90;16.88;;;9.90;99.90;;;;;;5027073;28;20068;-74
2023/03/21 13:08:22;;;;;;;25.95;14.55;;;10.00;99.90;;;;;;5009020;28;20133;-73